sensor_id;sensor_type;location;lat;lon;timestamp;pressure;altitude;pressure_sealevel;temperature;humidity
62592;BME280;48659;41.622;2.276;2023-02-19T00:01:07;100995.34;;;7.07;46.32
62592;BME280;48659;41.622;2.276;2023-02-19T00:03:36;100990.36;;;7.42;44.70
62592;BME280;48659;41.622;2.276;2023-02-19T00:06:06;100990.76;;;8.24;44.02
62592;BME280;48659;41.622;2.276;2023-02-19T00:08:36;100989.99;;;7.91;44.83
62592;BME280;48659;41.622;2.276;2023-02-19T00:11:05;100990.40;;;7.83;44.59
62592;BME280;48659;41.622;2.276;2023-02-19T00:13:35;100994.12;;;6.76;46.04
62592;BME280;48659;41.622;2.276;2023-02-19T00:16:05;100988.09;;;7.44;44.61
62592;BME280;48659;41.622;2.276;2023-02-19T00:18:33;100986.47;;;7.60;44.75
62592;BME280;48659;41.622;2.276;2023-02-19T00:21:01;100982.03;;;7.33;45.98
62592;BME280;48659;41.622;2.276;2023-02-19T00:23:29;100983.94;;;6.38;46.71
62592;BME280;48659;41.622;2.276;2023-02-19T00:26:00;100984.01;;;6.35;47.53
62592;BME280;48659;41.622;2.276;2023-02-19T00:28:27;100985.52;;;4.99;48.94
62592;BME280;48659;41.622;2.276;2023-02-19T00:30:54;100982.68;;;6.93;46.55
62592;BME280;48659;41.622;2.276;2023-02-19T00:33:26;100977.73;;;6.12;46.88
62592;BME280;48659;41.622;2.276;2023-02-19T00:35:53;100973.25;;;6.98;45.97
62592;BME280;48659;41.622;2.276;2023-02-19T00:38:26;100971.30;;;6.63;45.19
62592;BME280;48659;41.622;2.276;2023-02-19T00:40:54;100963.88;;;7.88;45.06
62592;BME280;48659;41.622;2.276;2023-02-19T00:43:35;100965.87;;;7.56;44.04
62592;BME280;48659;41.622;2.276;2023-02-19T00:46:03;100963.60;;;7.74;44.62
62592;BME280;48659;41.622;2.276;2023-02-19T00:48:31;100962.48;;;7.27;45.36
62592;BME280;48659;41.622;2.276;2023-02-19T00:50:58;100959.72;;;6.89;46.11
62592;BME280;48659;41.622;2.276;2023-02-19T00:53:26;100963.43;;;6.22;46.52
62592;BME280;48659;41.622;2.276;2023-02-19T00:55:54;100960.25;;;6.70;46.91
62592;BME280;48659;41.622;2.276;2023-02-19T00:58:37;100960.30;;;6.80;46.82
62592;BME280;48659;41.622;2.276;2023-02-19T01:01:05;100957.88;;;6.87;46.83
62592;BME280;48659;41.622;2.276;2023-02-19T01:03:33;100952.02;;;6.91;46.33
62592;BME280;48659;41.622;2.276;2023-02-19T01:06:03;100952.61;;;6.87;46.44
62592;BME280;48659;41.622;2.276;2023-02-19T01:08:31;100948.12;;;6.80;45.40
62592;BME280;48659;41.622;2.276;2023-02-19T01:10:59;100948.62;;;6.99;46.24
62592;BME280;48659;41.622;2.276;2023-02-19T01:13:31;100943.64;;;7.63;44.76
62592;BME280;48659;41.622;2.276;2023-02-19T01:16:02;100949.03;;;4.92;49.99
62592;BME280;48659;41.622;2.276;2023-02-19T01:18:31;100949.67;;;5.20;49.37
62592;BME280;48659;41.622;2.276;2023-02-19T01:20:59;100954.83;;;3.84;53.10
62592;BME280;48659;41.622;2.276;2023-02-19T01:23:26;100953.27;;;3.06;55.50
62592;BME280;48659;41.622;2.276;2023-02-19T01:25:53;100945.94;;;5.25;51.74
62592;BME280;48659;41.622;2.276;2023-02-19T01:28:25;100939.07;;;5.84;48.67
62592;BME280;48659;41.622;2.276;2023-02-19T01:30:52;100933.40;;;7.05;46.88
62592;BME280;48659;41.622;2.276;2023-02-19T01:33:42;100931.75;;;6.95;47.21
62592;BME280;48659;41.622;2.276;2023-02-19T01:36:10;100931.49;;;6.84;46.91
62592;BME280;48659;41.622;2.276;2023-02-19T01:38:38;100933.34;;;6.81;46.71
62592;BME280;48659;41.622;2.276;2023-02-19T01:41:07;100938.01;;;5.87;48.13
62592;BME280;48659;41.622;2.276;2023-02-19T01:43:57;100932.60;;;5.93;48.46
62592;BME280;48659;41.622;2.276;2023-02-19T01:46:26;100930.92;;;6.62;46.92
62592;BME280;48659;41.622;2.276;2023-02-19T01:48:56;100924.65;;;6.46;47.38
62592;BME280;48659;41.622;2.276;2023-02-19T01:51:30;100924.64;;;6.81;47.12
62592;BME280;48659;41.622;2.276;2023-02-19T01:54:02;100916.50;;;6.90;47.03
62592;BME280;48659;41.622;2.276;2023-02-19T01:56:32;100914.76;;;6.50;47.64
62592;BME280;48659;41.622;2.276;2023-02-19T01:59:01;100910.79;;;5.83;48.84
62592;BME280;48659;41.622;2.276;2023-02-19T02:01:29;100904.33;;;6.51;46.97
62592;BME280;48659;41.622;2.276;2023-02-19T02:03:56;100905.08;;;6.86;46.17
62592;BME280;48659;41.622;2.276;2023-02-19T02:06:26;100907.22;;;5.30;49.37
62592;BME280;48659;41.622;2.276;2023-02-19T02:08:57;100906.27;;;6.36;47.40
62592;BME280;48659;41.622;2.276;2023-02-19T02:11:24;100909.99;;;5.04;49.75
62592;BME280;48659;41.622;2.276;2023-02-19T02:13:53;100908.30;;;6.42;48.93
62592;BME280;48659;41.622;2.276;2023-02-19T02:16:23;100908.78;;;5.91;48.74
62592;BME280;48659;41.622;2.276;2023-02-19T02:18:58;100904.10;;;4.51;51.65
62592;BME280;48659;41.622;2.276;2023-02-19T02:21:54;100904.22;;;5.29;50.64
62592;BME280;48659;41.622;2.276;2023-02-19T02:24:43;100899.16;;;6.34;48.28
62592;BME280;48659;41.622;2.276;2023-02-19T02:31:25;100895.65;;;7.12;46.70
62592;BME280;48659;41.622;2.276;2023-02-19T02:34:00;100889.37;;;7.61;45.63
62592;BME280;48659;41.622;2.276;2023-02-19T02:36:34;100889.07;;;6.69;46.86
62592;BME280;48659;41.622;2.276;2023-02-19T02:39:06;100888.84;;;7.37;46.20
62592;BME280;48659;41.622;2.276;2023-02-19T02:41:34;100891.74;;;6.09;48.78
62592;BME280;48659;41.622;2.276;2023-02-19T02:44:07;100891.34;;;5.83;49.66
62592;BME280;48659;41.622;2.276;2023-02-19T02:46:34;100894.91;;;5.56;50.33
62592;BME280;48659;41.622;2.276;2023-02-19T02:49:08;100891.29;;;6.02;49.03
62592;BME280;48659;41.622;2.276;2023-02-19T02:51:39;100890.66;;;5.65;49.49
62592;BME280;48659;41.622;2.276;2023-02-19T02:54:11;100881.33;;;6.33;48.25
62592;BME280;48659;41.622;2.276;2023-02-19T02:56:40;100885.98;;;6.29;48.49
62592;BME280;48659;41.622;2.276;2023-02-19T02:59:11;100885.32;;;6.76;48.10
62592;BME280;48659;41.622;2.276;2023-02-19T03:01:44;100882.48;;;6.59;48.02
62592;BME280;48659;41.622;2.276;2023-02-19T03:04:17;100884.69;;;5.47;50.71
62592;BME280;48659;41.622;2.276;2023-02-19T03:06:47;100884.23;;;3.83;52.42
62592;BME280;48659;41.622;2.276;2023-02-19T03:09:18;100885.21;;;5.98;48.67
62592;BME280;48659;41.622;2.276;2023-02-19T03:11:49;100885.07;;;6.35;48.08
62592;BME280;48659;41.622;2.276;2023-02-19T03:14:21;100884.80;;;6.38;47.74
62592;BME280;48659;41.622;2.276;2023-02-19T03:16:57;100886.92;;;5.68;49.09
62592;BME280;48659;41.622;2.276;2023-02-19T03:19:27;100891.10;;;5.93;49.72
62592;BME280;48659;41.622;2.276;2023-02-19T03:21:59;100882.76;;;5.96;49.03
62592;BME280;48659;41.622;2.276;2023-02-19T03:24:29;100881.04;;;6.21;48.11
62592;BME280;48659;41.622;2.276;2023-02-19T03:26:58;100880.55;;;6.22;48.44
62592;BME280;48659;41.622;2.276;2023-02-19T03:29:30;100885.26;;;5.31;49.56
62592;BME280;48659;41.622;2.276;2023-02-19T03:32:03;100883.76;;;5.09;50.13
62592;BME280;48659;41.622;2.276;2023-02-19T03:34:35;100883.89;;;5.22;50.32
62592;BME280;48659;41.622;2.276;2023-02-19T03:37:08;100879.23;;;5.29;50.45
62592;BME280;48659;41.622;2.276;2023-02-19T03:39:37;100877.88;;;6.29;49.40
62592;BME280;48659;41.622;2.276;2023-02-19T03:42:08;100882.69;;;5.65;49.66
62592;BME280;48659;41.622;2.276;2023-02-19T03:44:45;100878.54;;;6.11;49.36
62592;BME280;48659;41.622;2.276;2023-02-19T03:47:33;100877.34;;;6.51;49.30
62592;BME280;48659;41.622;2.276;2023-02-19T03:50:15;100876.12;;;6.27;48.92
62592;BME280;48659;41.622;2.276;2023-02-19T03:52:51;100871.90;;;5.75;49.47
62592;BME280;48659;41.622;2.276;2023-02-19T03:55:30;100877.74;;;6.09;48.51
62592;BME280;48659;41.622;2.276;2023-02-19T03:58:04;100877.80;;;6.89;47.69
62592;BME280;48659;41.622;2.276;2023-02-19T04:00:38;100879.39;;;6.71;48.24
62592;BME280;48659;41.622;2.276;2023-02-19T04:03:12;100877.65;;;7.19;47.46
62592;BME280;48659;41.622;2.276;2023-02-19T04:05:45;100874.38;;;8.07;45.95
62592;BME280;48659;41.622;2.276;2023-02-19T04:08:16;100877.56;;;7.32;46.01
62592;BME280;48659;41.622;2.276;2023-02-19T04:10:46;100872.61;;;7.39;45.90
62592;BME280;48659;41.622;2.276;2023-02-19T04:13:18;100870.81;;;6.57;47.26
62592;BME280;48659;41.622;2.276;2023-02-19T04:15:47;100883.18;;;5.31;49.24
62592;BME280;48659;41.622;2.276;2023-02-19T04:18:20;100886.52;;;6.11;48.36
62592;BME280;48659;41.622;2.276;2023-02-19T04:20:48;100886.49;;;6.51;48.20
62592;BME280;48659;41.622;2.276;2023-02-19T04:23:19;100882.96;;;7.19;47.11
62592;BME280;48659;41.622;2.276;2023-02-19T04:25:53;100883.42;;;6.86;46.62
62592;BME280;48659;41.622;2.276;2023-02-19T04:28:22;100887.47;;;6.69;46.91
62592;BME280;48659;41.622;2.276;2023-02-19T04:30:49;100893.09;;;5.88;48.52
62592;BME280;48659;41.622;2.276;2023-02-19T04:33:16;100898.59;;;6.27;49.05
62592;BME280;48659;41.622;2.276;2023-02-19T04:35:44;100901.25;;;5.93;48.52
62592;BME280;48659;41.622;2.276;2023-02-19T04:38:11;100902.52;;;5.94;48.97
62592;BME280;48659;41.622;2.276;2023-02-19T04:40:38;100898.34;;;7.09;48.20
62592;BME280;48659;41.622;2.276;2023-02-19T04:43:06;100895.54;;;6.43;48.83
62592;BME280;48659;41.622;2.276;2023-02-19T04:45:36;100896.24;;;6.19;48.83
62592;BME280;48659;41.622;2.276;2023-02-19T04:48:03;100889.19;;;7.24;47.89
62592;BME280;48659;41.622;2.276;2023-02-19T04:50:31;100893.12;;;6.45;47.65
62592;BME280;48659;41.622;2.276;2023-02-19T04:52:58;100894.62;;;5.83;48.15
62592;BME280;48659;41.622;2.276;2023-02-19T04:55:26;100895.13;;;6.14;47.81
62592;BME280;48659;41.622;2.276;2023-02-19T04:57:53;100898.76;;;5.60;49.48
62592;BME280;48659;41.622;2.276;2023-02-19T05:00:21;100900.99;;;5.74;49.05
62592;BME280;48659;41.622;2.276;2023-02-19T05:02:49;100900.21;;;6.07;49.27
62592;BME280;48659;41.622;2.276;2023-02-19T05:05:16;100899.59;;;6.62;48.61
62592;BME280;48659;41.622;2.276;2023-02-19T05:07:44;100898.07;;;6.87;46.86
62592;BME280;48659;41.622;2.276;2023-02-19T05:10:11;100899.75;;;7.42;45.98
62592;BME280;48659;41.622;2.276;2023-02-19T05:12:39;100906.67;;;5.76;48.58
62592;BME280;48659;41.622;2.276;2023-02-19T05:15:06;100906.21;;;6.06;47.99
62592;BME280;48659;41.622;2.276;2023-02-19T05:17:34;100908.89;;;5.76;49.01
62592;BME280;48659;41.622;2.276;2023-02-19T05:20:02;100910.28;;;6.01;49.15
62592;BME280;48659;41.622;2.276;2023-02-19T05:22:30;100906.77;;;5.42;49.51
62592;BME280;48659;41.622;2.276;2023-02-19T05:24:57;100906.97;;;5.41;49.89
62592;BME280;48659;41.622;2.276;2023-02-19T05:27:24;100910.17;;;4.46;52.22
62592;BME280;48659;41.622;2.276;2023-02-19T05:29:52;100909.11;;;5.60;50.34
62592;BME280;48659;41.622;2.276;2023-02-19T05:32:20;100906.38;;;5.26;50.15
62592;BME280;48659;41.622;2.276;2023-02-19T05:34:48;100904.75;;;5.14;50.50
62592;BME280;48659;41.622;2.276;2023-02-19T05:37:16;100903.62;;;5.48;51.20
62592;BME280;48659;41.622;2.276;2023-02-19T05:39:44;100906.91;;;5.94;49.85
62592;BME280;48659;41.622;2.276;2023-02-19T05:42:12;100909.22;;;5.55;50.57
62592;BME280;48659;41.622;2.276;2023-02-19T05:44:39;100908.22;;;5.45;50.29
62592;BME280;48659;41.622;2.276;2023-02-19T05:47:07;100906.00;;;5.73;49.51
62592;BME280;48659;41.622;2.276;2023-02-19T05:49:35;100905.58;;;4.65;50.76
62592;BME280;48659;41.622;2.276;2023-02-19T05:52:03;100912.81;;;3.87;53.97
62592;BME280;48659;41.622;2.276;2023-02-19T05:54:31;100905.78;;;4.81;51.76
62592;BME280;48659;41.622;2.276;2023-02-19T05:56:58;100906.30;;;5.52;50.52
62592;BME280;48659;41.622;2.276;2023-02-19T05:59:26;100902.62;;;6.08;49.93
62592;BME280;48659;41.622;2.276;2023-02-19T06:01:54;100903.95;;;5.04;51.30
62592;BME280;48659;41.622;2.276;2023-02-19T06:04:22;100902.06;;;5.20;50.20
62592;BME280;48659;41.622;2.276;2023-02-19T06:06:49;100903.37;;;6.04;49.22
62592;BME280;48659;41.622;2.276;2023-02-19T06:09:17;100899.39;;;6.71;48.71
62592;BME280;48659;41.622;2.276;2023-02-19T06:11:45;100900.51;;;6.30;48.28
62592;BME280;48659;41.622;2.276;2023-02-19T06:14:13;100901.99;;;7.20;47.30
62592;BME280;48659;41.622;2.276;2023-02-19T06:16:40;100908.57;;;6.29;49.27
62592;BME280;48659;41.622;2.276;2023-02-19T06:19:09;100911.91;;;5.43;49.74
62592;BME280;48659;41.622;2.276;2023-02-19T06:21:37;100911.97;;;5.25;50.84
62592;BME280;48659;41.622;2.276;2023-02-19T06:24:05;100911.54;;;5.56;50.42
62592;BME280;48659;41.622;2.276;2023-02-19T06:26:33;100915.99;;;5.69;49.54
62592;BME280;48659;41.622;2.276;2023-02-19T06:29:00;100917.58;;;4.87;52.47
62592;BME280;48659;41.622;2.276;2023-02-19T06:31:29;100925.76;;;5.73;50.64
62592;BME280;48659;41.622;2.276;2023-02-19T06:33:57;100927.80;;;5.53;50.64
62592;BME280;48659;41.622;2.276;2023-02-19T06:36:25;100930.50;;;5.04;50.78
62592;BME280;48659;41.622;2.276;2023-02-19T06:38:52;100931.68;;;6.13;49.97
62592;BME280;48659;41.622;2.276;2023-02-19T06:41:19;100932.22;;;6.04;49.46
62592;BME280;48659;41.622;2.276;2023-02-19T06:43:47;100933.43;;;6.20;49.47
62592;BME280;48659;41.622;2.276;2023-02-19T06:46:14;100931.89;;;6.03;49.50
62592;BME280;48659;41.622;2.276;2023-02-19T06:48:43;100934.16;;;5.48;50.13
62592;BME280;48659;41.622;2.276;2023-02-19T06:51:12;100937.47;;;6.18;50.01
62592;BME280;48659;41.622;2.276;2023-02-19T06:53:39;100941.11;;;6.51;49.55
62592;BME280;48659;41.622;2.276;2023-02-19T06:56:26;100939.17;;;6.46;49.25
62592;BME280;48659;41.622;2.276;2023-02-19T06:58:56;100943.77;;;6.58;49.22
62592;BME280;48659;41.622;2.276;2023-02-19T07:01:25;100942.54;;;7.18;47.83
62592;BME280;48659;41.622;2.276;2023-02-19T07:03:53;100949.61;;;7.23;47.74
62592;BME280;48659;41.622;2.276;2023-02-19T07:06:22;100955.02;;;5.96;49.21
62592;BME280;48659;41.622;2.276;2023-02-19T07:08:50;100958.19;;;6.91;48.13
62592;BME280;48659;41.622;2.276;2023-02-19T07:11:21;100955.76;;;7.24;47.38
62592;BME280;48659;41.622;2.276;2023-02-19T07:13:59;100961.97;;;6.96;47.53
62592;BME280;48659;41.622;2.276;2023-02-19T07:16:28;100963.98;;;7.67;46.14
62592;BME280;48659;41.622;2.276;2023-02-19T07:18:55;100964.21;;;8.16;46.18
62592;BME280;48659;41.622;2.276;2023-02-19T07:21:23;100962.81;;;7.93;46.30
62592;BME280;48659;41.622;2.276;2023-02-19T07:23:51;100962.53;;;6.84;47.64
62592;BME280;48659;41.622;2.276;2023-02-19T07:26:23;100966.14;;;5.20;51.03
62592;BME280;48659;41.622;2.276;2023-02-19T07:28:51;100966.33;;;6.63;48.82
62592;BME280;48659;41.622;2.276;2023-02-19T07:31:21;100970.30;;;6.82;48.79
62592;BME280;48659;41.622;2.276;2023-02-19T07:33:49;100972.64;;;7.36;47.10
62592;BME280;48659;41.622;2.276;2023-02-19T07:36:19;100970.15;;;7.68;47.53
62592;BME280;48659;41.622;2.276;2023-02-19T07:38:50;100970.57;;;7.57;46.99
62592;BME280;48659;41.622;2.276;2023-02-19T07:41:19;100976.63;;;8.11;46.19
62592;BME280;48659;41.622;2.276;2023-02-19T07:43:47;100982.11;;;8.47;46.05
62592;BME280;48659;41.622;2.276;2023-02-19T07:46:15;100985.47;;;8.60;45.53
62592;BME280;48659;41.622;2.276;2023-02-19T07:48:43;100985.71;;;7.98;46.29
62592;BME280;48659;41.622;2.276;2023-02-19T07:51:12;100987.80;;;9.06;46.11
62592;BME280;48659;41.622;2.276;2023-02-19T07:53:40;100989.80;;;9.04;44.89
62592;BME280;48659;41.622;2.276;2023-02-19T07:56:09;100990.75;;;9.41;43.89
62592;BME280;48659;41.622;2.276;2023-02-19T07:58:38;100991.98;;;8.96;43.62
62592;BME280;48659;41.622;2.276;2023-02-19T08:01:09;100988.38;;;9.52;43.10
62592;BME280;48659;41.622;2.276;2023-02-19T08:03:38;100990.20;;;9.68;42.74
62592;BME280;48659;41.622;2.276;2023-02-19T08:06:07;100988.55;;;9.33;43.15
62592;BME280;48659;41.622;2.276;2023-02-19T08:08:36;100987.18;;;9.18;43.20
62592;BME280;48659;41.622;2.276;2023-02-19T08:11:09;100984.49;;;9.85;42.59
62592;BME280;48659;41.622;2.276;2023-02-19T08:13:36;100989.38;;;9.97;42.41
62592;BME280;48659;41.622;2.276;2023-02-19T08:16:13;100988.65;;;9.97;42.31
62592;BME280;48659;41.622;2.276;2023-02-19T08:18:41;100988.59;;;10.29;42.07
62592;BME280;48659;41.622;2.276;2023-02-19T08:21:09;100986.53;;;10.05;41.78
62592;BME280;48659;41.622;2.276;2023-02-19T08:23:37;100984.75;;;10.23;41.52
62592;BME280;48659;41.622;2.276;2023-02-19T08:26:05;100981.55;;;9.91;41.86
62592;BME280;48659;41.622;2.276;2023-02-19T08:28:32;100984.06;;;10.26;41.91
62592;BME280;48659;41.622;2.276;2023-02-19T08:31:01;100982.87;;;10.42;41.19
62592;BME280;48659;41.622;2.276;2023-02-19T08:33:28;100985.01;;;10.76;40.70
62592;BME280;48659;41.622;2.276;2023-02-19T08:35:59;100983.48;;;10.76;40.51
62592;BME280;48659;41.622;2.276;2023-02-19T08:38:28;100982.96;;;10.74;40.84
62592;BME280;48659;41.622;2.276;2023-02-19T08:40:55;100980.51;;;10.64;40.10
62592;BME280;48659;41.622;2.276;2023-02-19T08:43:23;100977.87;;;10.64;40.16
62592;BME280;48659;41.622;2.276;2023-02-19T08:45:52;100978.75;;;10.77;40.28
62592;BME280;48659;41.622;2.276;2023-02-19T08:48:21;100974.32;;;11.04;40.65
62592;BME280;48659;41.622;2.276;2023-02-19T08:50:53;100971.32;;;10.96;39.94
62592;BME280;48659;41.622;2.276;2023-02-19T08:53:22;100967.25;;;10.83;40.10
62592;BME280;48659;41.622;2.276;2023-02-19T08:55:49;100965.91;;;11.22;39.76
62592;BME280;48659;41.622;2.276;2023-02-19T08:58:17;100971.49;;;9.68;41.95
62592;BME280;48659;41.622;2.276;2023-02-19T09:00:44;100970.34;;;10.41;41.31
62592;BME280;48659;41.622;2.276;2023-02-19T09:03:12;100964.82;;;11.46;39.66
62592;BME280;48659;41.622;2.276;2023-02-19T09:05:40;100966.10;;;11.65;38.96
62592;BME280;48659;41.622;2.276;2023-02-19T09:08:08;100965.41;;;12.21;38.08
62592;BME280;48659;41.622;2.276;2023-02-19T09:10:35;100965.31;;;12.34;37.48
62592;BME280;48659;41.622;2.276;2023-02-19T09:13:02;100964.23;;;12.51;37.25
62592;BME280;48659;41.622;2.276;2023-02-19T09:15:30;100960.30;;;12.64;37.08
62592;BME280;48659;41.622;2.276;2023-02-19T09:17:58;100958.28;;;12.63;36.93
62592;BME280;48659;41.622;2.276;2023-02-19T09:20:26;100952.65;;;12.02;37.20
62592;BME280;48659;41.622;2.276;2023-02-19T09:22:58;100954.19;;;12.65;37.05
62592;BME280;48659;41.622;2.276;2023-02-19T09:25:25;100950.43;;;13.10;35.94
62592;BME280;48659;41.622;2.276;2023-02-19T09:27:54;100948.08;;;13.64;36.77
62592;BME280;48659;41.622;2.276;2023-02-19T09:30:27;100946.41;;;13.42;35.74
62592;BME280;48659;41.622;2.276;2023-02-19T09:32:55;100944.77;;;13.79;37.12
62592;BME280;48659;41.622;2.276;2023-02-19T09:35:22;100945.54;;;13.64;34.89
62592;BME280;48659;41.622;2.276;2023-02-19T09:37:50;100949.46;;;14.18;34.50
62592;BME280;48659;41.622;2.276;2023-02-19T09:40:18;100948.90;;;13.25;36.07
62592;BME280;48659;41.622;2.276;2023-02-19T09:42:47;100951.92;;;13.85;35.70
62592;BME280;48659;41.622;2.276;2023-02-19T09:45:20;100951.91;;;14.01;38.54
62592;BME280;48659;41.622;2.276;2023-02-19T09:47:52;100952.52;;;14.72;35.71
62592;BME280;48659;41.622;2.276;2023-02-19T09:50:33;100949.41;;;14.04;35.09
62592;BME280;48659;41.622;2.276;2023-02-19T09:53:04;100950.84;;;14.86;33.63
62592;BME280;48659;41.622;2.276;2023-02-19T09:55:41;100948.47;;;15.13;33.21
62592;BME280;48659;41.622;2.276;2023-02-19T09:58:33;100945.73;;;15.32;33.03
62592;BME280;48659;41.622;2.276;2023-02-19T10:01:03;100939.32;;;15.20;32.33
62592;BME280;48659;41.622;2.276;2023-02-19T10:03:33;100940.05;;;15.29;32.31
62592;BME280;48659;41.622;2.276;2023-02-19T10:06:05;100938.56;;;15.75;32.47
62592;BME280;48659;41.622;2.276;2023-02-19T10:08:35;100941.98;;;14.95;33.66
62592;BME280;48659;41.622;2.276;2023-02-19T10:11:05;100944.64;;;15.51;33.04
62592;BME280;48659;41.622;2.276;2023-02-19T10:13:34;100944.30;;;15.52;33.52
62592;BME280;48659;41.622;2.276;2023-02-19T10:16:05;100945.23;;;15.60;33.61
62592;BME280;48659;41.622;2.276;2023-02-19T10:18:38;100946.00;;;15.08;33.65
62592;BME280;48659;41.622;2.276;2023-02-19T10:21:14;100943.80;;;15.72;33.31
62592;BME280;48659;41.622;2.276;2023-02-19T10:23:43;100943.04;;;15.88;33.03
62592;BME280;48659;41.622;2.276;2023-02-19T10:26:12;100948.44;;;14.57;34.64
62592;BME280;48659;41.622;2.276;2023-02-19T10:28:39;100944.41;;;15.76;33.03
62592;BME280;48659;41.622;2.276;2023-02-19T10:31:15;100946.00;;;16.13;32.67
62592;BME280;48659;41.622;2.276;2023-02-19T10:33:49;100944.77;;;15.86;32.89
62592;BME280;48659;41.622;2.276;2023-02-19T10:36:24;100947.20;;;15.32;33.10
62592;BME280;48659;41.622;2.276;2023-02-19T10:38:53;100946.04;;;15.73;32.71
62592;BME280;48659;41.622;2.276;2023-02-19T10:41:22;100948.01;;;15.43;33.04
62592;BME280;48659;41.622;2.276;2023-02-19T10:43:54;100950.58;;;15.81;32.88
62592;BME280;48659;41.622;2.276;2023-02-19T10:46:25;100955.17;;;13.70;34.74
62592;BME280;48659;41.622;2.276;2023-02-19T10:48:57;100949.17;;;15.58;32.58
62592;BME280;48659;41.622;2.276;2023-02-19T10:51:32;100952.65;;;16.15;31.99
62592;BME280;48659;41.622;2.276;2023-02-19T10:54:04;100953.81;;;16.45;31.97
62592;BME280;48659;41.622;2.276;2023-02-19T10:56:32;100952.69;;;16.67;31.71
62592;BME280;48659;41.622;2.276;2023-02-19T10:59:18;100947.78;;;17.02;30.84
62592;BME280;48659;41.622;2.276;2023-02-19T11:01:57;100944.42;;;16.94;30.93
62592;BME280;48659;41.622;2.276;2023-02-19T11:04:29;100942.29;;;15.51;32.89
62592;BME280;48659;41.622;2.276;2023-02-19T11:06:58;100943.90;;;13.51;35.59
62592;BME280;48659;41.622;2.276;2023-02-19T11:09:37;100940.20;;;15.57;33.49
62592;BME280;48659;41.622;2.276;2023-02-19T11:12:06;100940.60;;;16.82;31.95
62592;BME280;48659;41.622;2.276;2023-02-19T11:14:34;100935.37;;;15.88;32.14
62592;BME280;48659;41.622;2.276;2023-02-19T11:17:03;100935.98;;;17.10;31.20
62592;BME280;48659;41.622;2.276;2023-02-19T11:19:35;100932.00;;;17.46;30.76
62592;BME280;48659;41.622;2.276;2023-02-19T11:22:19;100926.90;;;17.57;30.46
62592;BME280;48659;41.622;2.276;2023-02-19T11:24:48;100920.94;;;17.67;30.63
62592;BME280;48659;41.622;2.276;2023-02-19T11:27:18;100923.91;;;17.20;30.95
62592;BME280;48659;41.622;2.276;2023-02-19T11:30:31;100921.15;;;17.29;30.72
62592;BME280;48659;41.622;2.276;2023-02-19T11:33:20;100911.87;;;17.57;30.28
62592;BME280;48659;41.622;2.276;2023-02-19T11:35:54;100911.54;;;17.03;30.35
62592;BME280;48659;41.622;2.276;2023-02-19T11:38:27;100912.35;;;16.55;30.68
62592;BME280;48659;41.622;2.276;2023-02-19T11:41:02;100912.11;;;16.25;31.56
62592;BME280;48659;41.622;2.276;2023-02-19T11:43:47;100901.50;;;17.87;29.36
62592;BME280;48659;41.622;2.276;2023-02-19T11:46:23;100898.31;;;17.84;29.31
62592;BME280;48659;41.622;2.276;2023-02-19T11:49:05;100895.23;;;18.53;28.75
62592;BME280;48659;41.622;2.276;2023-02-19T11:51:47;100890.43;;;18.44;28.41
62592;BME280;48659;41.622;2.276;2023-02-19T11:54:31;100891.00;;;18.02;29.12
62592;BME280;48659;41.622;2.276;2023-02-19T11:57:11;100889.69;;;18.59;28.37
62592;BME280;48659;41.622;2.276;2023-02-19T11:59:47;100888.71;;;18.43;28.36
62592;BME280;48659;41.622;2.276;2023-02-19T12:02:36;100886.58;;;19.48;27.45
62592;BME280;48659;41.622;2.276;2023-02-19T12:05:19;100880.34;;;18.67;28.05
62592;BME280;48659;41.622;2.276;2023-02-19T12:08:03;100881.25;;;16.55;30.32
62592;BME280;48659;41.622;2.276;2023-02-19T12:10:48;100870.95;;;18.11;28.35
62592;BME280;48659;41.622;2.276;2023-02-19T12:13:25;100868.03;;;17.21;29.45
62592;BME280;48659;41.622;2.276;2023-02-19T12:16:05;100860.48;;;18.73;27.47
62592;BME280;48659;41.622;2.276;2023-02-19T12:19:00;100858.64;;;19.01;27.56
62592;BME280;48659;41.622;2.276;2023-02-19T12:21:47;100853.02;;;19.27;26.40
62592;BME280;48659;41.622;2.276;2023-02-19T12:24:47;100845.95;;;19.06;26.41
62592;BME280;48659;41.622;2.276;2023-02-19T12:27:25;100840.97;;;19.26;26.43
62592;BME280;48659;41.622;2.276;2023-02-19T12:30:13;100838.08;;;19.76;27.25
62592;BME280;48659;41.622;2.276;2023-02-19T12:33:41;100831.88;;;18.69;26.83
62592;BME280;48659;41.622;2.276;2023-02-19T12:36:20;100826.00;;;19.20;26.26
62592;BME280;48659;41.622;2.276;2023-02-19T12:38:56;100821.80;;;19.03;26.24
62592;BME280;48659;41.622;2.276;2023-02-19T12:41:37;100813.51;;;19.53;25.84
62592;BME280;48659;41.622;2.276;2023-02-19T12:44:12;100810.99;;;19.42;26.04
62592;BME280;48659;41.622;2.276;2023-02-19T12:46:44;100808.62;;;19.78;25.37
62592;BME280;48659;41.622;2.276;2023-02-19T12:49:21;100803.82;;;19.99;25.35
62592;BME280;48659;41.622;2.276;2023-02-19T12:51:52;100804.80;;;20.24;25.14
62592;BME280;48659;41.622;2.276;2023-02-19T12:54:27;100799.68;;;18.85;26.24
62592;BME280;48659;41.622;2.276;2023-02-19T12:57:00;100798.15;;;19.67;25.61
62592;BME280;48659;41.622;2.276;2023-02-19T12:59:32;100796.74;;;20.03;25.27
62592;BME280;48659;41.622;2.276;2023-02-19T13:02:08;100795.54;;;20.08;25.41
62592;BME280;48659;41.622;2.276;2023-02-19T13:04:46;100790.96;;;19.56;25.25
62592;BME280;48659;41.622;2.276;2023-02-19T13:07:19;100787.58;;;19.75;25.19
62592;BME280;48659;41.622;2.276;2023-02-19T13:09:58;100785.26;;;19.01;26.33
62592;BME280;48659;41.622;2.276;2023-02-19T13:12:33;100785.39;;;17.05;27.86
62592;BME280;48659;41.622;2.276;2023-02-19T13:15:12;100775.38;;;19.05;26.39
62592;BME280;48659;41.622;2.276;2023-02-19T13:17:44;100770.32;;;19.36;25.85
62592;BME280;48659;41.622;2.276;2023-02-19T13:20:21;100774.56;;;20.25;25.08
62592;BME280;48659;41.622;2.276;2023-02-19T13:22:58;100773.87;;;19.35;25.76
62592;BME280;48659;41.622;2.276;2023-02-19T13:25:43;100764.54;;;18.23;26.42